createdAt,value
2023-02-11T00:03:36.801Z,5.63
2023-02-11T00:08:41.813Z,5.57
2023-02-11T00:13:46.472Z,6.63
2023-02-11T00:18:50.532Z,6.63
2023-02-11T00:23:57.253Z,6.37
2023-02-11T00:29:02.712Z,6.33
2023-02-11T00:34:08.320Z,6.57
2023-02-11T00:39:13.393Z,6.57
2023-02-11T00:44:17.090Z,5.17
2023-02-11T00:49:22.588Z,6.50
2023-02-11T00:54:29.926Z,6.93
2023-02-11T00:59:33.542Z,6.40
2023-02-11T01:04:42.875Z,6.87
2023-02-11T01:09:47.758Z,6.83
2023-02-11T01:14:51.263Z,5.73
2023-02-11T01:19:56.484Z,7.13
2023-02-11T01:25:04.982Z,6.80
2023-02-11T01:30:10.479Z,6.43
2023-02-11T01:35:15.933Z,6.47
2023-02-11T01:40:21.197Z,6.60
2023-02-11T01:45:57.186Z,6.83
2023-02-11T01:51:06.082Z,7.60
2023-02-11T01:56:29.014Z,7.33
2023-02-11T02:01:35.615Z,6.53
2023-02-11T02:06:45.916Z,7.43
2023-02-11T02:11:52.268Z,7.87
2023-02-11T02:16:55.906Z,7.67
2023-02-11T02:22:18.087Z,7.67
2023-02-11T02:27:39.093Z,7.40
2023-02-11T02:32:57.249Z,7.07
2023-02-11T02:38:08.036Z,7.77
2023-02-11T02:43:12.864Z,8.07
2023-02-11T02:48:32.230Z,8.23
2023-02-11T02:53:47.018Z,7.10
2023-02-11T02:59:04.108Z,7.63
2023-02-11T03:04:19.548Z,8.70
2023-02-11T03:09:29.067Z,8.07
2023-02-11T03:14:33.498Z,7.97
2023-02-11T03:19:40.637Z,7.37
2023-02-11T03:24:45.298Z,7.87
2023-02-11T03:29:54.914Z,7.10
2023-02-11T03:35:03.658Z,6.67
2023-02-11T03:40:12.828Z,8.10
2023-02-11T03:45:21.064Z,8.90
2023-02-11T03:50:34.983Z,6.97
2023-02-11T03:55:40.844Z,6.80
2023-02-11T04:00:45.260Z,6.70
2023-02-11T04:05:50.445Z,6.93
2023-02-11T04:10:54.254Z,7.27
2023-02-11T04:15:58.082Z,6.73
2023-02-11T04:21:03.090Z,8.13
2023-02-11T04:26:07.323Z,7.80
2023-02-11T04:31:12.172Z,7.30
2023-02-11T04:36:17.336Z,8.53
2023-02-11T04:41:21.010Z,7.37
2023-02-11T04:46:24.670Z,8.07
2023-02-11T04:51:31.066Z,6.83
2023-02-11T04:56:35.406Z,7.03
2023-02-11T05:01:39.219Z,7.03
2023-02-11T05:06:44.177Z,7.40
2023-02-11T05:11:48.313Z,7.47
2023-02-11T05:16:52.153Z,7.37
2023-02-11T05:22:03.042Z,7.27
2023-02-11T05:27:06.997Z,6.93
2023-02-11T05:32:12.320Z,6.80
2023-02-11T05:37:17.787Z,6.17
2023-02-11T05:42:21.404Z,6.67
2023-02-11T05:47:25.160Z,6.30
2023-02-11T05:52:33.408Z,6.30
2023-02-11T05:57:37.985Z,6.37
2023-02-11T06:02:41.871Z,6.53
2023-02-11T06:07:46.804Z,6.33
2023-02-11T06:12:51.064Z,5.53
2023-02-11T06:17:58.123Z,6.60
2023-02-11T06:23:04.599Z,6.37
2023-02-11T06:28:08.670Z,6.63
2023-02-11T06:33:12.238Z,5.83
2023-02-11T06:38:17.314Z,6.33
2023-02-11T06:43:21.277Z,6.70
2023-02-11T06:48:25.477Z,6.47
2023-02-11T06:53:30.768Z,6.83
2023-02-11T06:58:37.444Z,7.23
2023-02-11T07:03:43.779Z,6.87
2023-02-11T07:08:49.884Z,7.07
2023-02-11T07:13:55.340Z,6.23
2023-02-11T07:18:59.169Z,6.27
2023-02-11T07:24:10.378Z,6.63
2023-02-11T07:29:14.420Z,6.20
2023-02-11T07:34:18.185Z,5.63
2023-02-11T07:39:29.936Z,6.13
2023-02-11T07:44:35.135Z,6.07
2023-02-11T07:49:38.703Z,6.60
2023-02-11T07:54:43.599Z,6.37
2023-02-11T07:59:47.255Z,6.03
2023-02-11T08:04:50.920Z,6.73
2023-02-11T08:09:56.121Z,6.40
2023-02-11T08:14:59.828Z,6.50
2023-02-11T08:20:03.436Z,6.10
2023-02-11T08:25:09.356Z,5.20
2023-02-11T08:30:14.046Z,5.47
2023-02-11T08:35:17.771Z,5.20
2023-02-11T08:40:22.813Z,5.23
2023-02-11T08:45:26.218Z,6.50
2023-02-11T08:50:29.802Z,5.40
2023-02-11T08:55:34.625Z,5.30
2023-02-11T09:00:38.005Z,5.90
2023-02-11T09:05:43.721Z,5.83
2023-02-11T09:10:49.082Z,6.63
2023-02-11T09:15:52.615Z,5.63
2023-02-11T09:21:03.056Z,6.80
2023-02-11T09:26:09.975Z,6.17
2023-02-11T09:31:17.677Z,7.10
2023-02-11T09:36:24.085Z,5.97
2023-02-11T09:41:40.413Z,5.73
2023-02-11T09:46:44.994Z,5.57
2023-02-11T09:51:51.159Z,5.80
2023-02-11T09:56:55.934Z,6.03
2023-02-11T10:02:03.639Z,6.43
2023-02-11T10:07:20.254Z,5.63
2023-02-11T10:12:44.932Z,6.17
2023-02-11T10:18:03.002Z,5.43
2023-02-11T10:23:15.567Z,5.50
2023-02-11T10:28:22.078Z,5.33
2023-02-11T10:33:29.157Z,4.90
2023-02-11T10:38:33.131Z,4.87
2023-02-11T10:43:38.446Z,5.63
2023-02-11T10:48:45.260Z,6.00
2023-02-11T10:53:49.976Z,4.87
2023-02-11T10:59:01.272Z,5.27
2023-02-11T11:04:05.935Z,5.37
2023-02-11T11:09:28.833Z,6.47
2023-02-11T11:14:33.627Z,6.23
2023-02-11T11:19:39.308Z,5.43
2023-02-11T11:24:46.854Z,4.67
2023-02-11T11:29:55.034Z,5.07
2023-02-11T11:35:03.703Z,5.23
2023-02-11T11:40:11.471Z,5.13
2023-02-11T11:45:27.782Z,4.33
2023-02-11T11:50:36.510Z,4.13
2023-02-11T11:55:43.425Z,4.80
2023-02-11T12:00:59.911Z,4.03
2023-02-11T12:06:15.661Z,3.80
2023-02-11T12:11:25.554Z,4.00
2023-02-11T12:16:43.823Z,4.10
2023-02-11T12:21:57.708Z,3.50
2023-02-11T12:27:07.547Z,3.53
2023-02-11T12:32:27.300Z,3.53
2023-02-11T12:37:43.449Z,4.00
2023-02-11T12:43:19.062Z,3.70
2023-02-11T12:48:55.049Z,3.93
2023-02-11T12:54:21.466Z,3.93
2023-02-11T12:59:40.110Z,4.03
2023-02-11T13:04:51.363Z,4.10
2023-02-11T13:10:02.459Z,5.07
2023-02-11T13:15:14.333Z,4.10
2023-02-11T13:20:28.686Z,4.90
2023-02-11T13:25:41.011Z,5.40
2023-02-11T13:30:47.698Z,5.17
2023-02-11T13:36:13.901Z,3.97
2023-02-11T13:41:22.467Z,5.00
2023-02-11T13:46:29.312Z,4.33
2023-02-11T13:51:39.957Z,4.63
2023-02-11T13:56:46.371Z,4.87
2023-02-11T14:02:38.905Z,4.83
2023-02-11T14:08:38.467Z,4.53
2023-02-11T14:14:15.873Z,5.03
2023-02-11T14:19:33.651Z,4.70
2023-02-11T14:24:53.415Z,5.00
2023-02-11T14:30:19.931Z,4.27
2023-02-11T14:35:33.022Z,4.90
2023-02-11T14:40:43.602Z,4.37
2023-02-11T14:45:52.917Z,4.37
2023-02-11T14:51:02.112Z,4.37
2023-02-11T14:56:20.389Z,5.10
2023-02-11T15:01:32.234Z,6.53
2023-02-11T15:12:24.345Z,7.70
2023-02-11T15:17:33.233Z,5.07
2023-02-11T15:22:39.921Z,3.93
2023-02-11T15:27:45.808Z,3.90
2023-02-11T15:32:53.394Z,3.50
2023-02-11T15:37:59.214Z,3.90
2023-02-11T15:43:05.810Z,3.77
2023-02-11T15:48:22.512Z,3.60
2023-02-11T15:53:32.303Z,3.17
2023-02-11T15:58:40.776Z,3.20
2023-02-11T16:03:52.578Z,3.77
2023-02-11T16:09:04.771Z,3.57
2023-02-11T16:14:25.212Z,3.37
2023-02-11T16:19:34.584Z,3.70
2023-02-11T16:24:40.362Z,3.50
2023-02-11T16:29:51.468Z,3.90
2023-02-11T16:35:05.937Z,3.67
2023-02-11T16:40:13.482Z,3.40
2023-02-11T16:45:19.435Z,4.30
2023-02-11T16:50:27.819Z,3.97
2023-02-11T16:55:34.943Z,4.07
2023-02-11T17:00:39.693Z,4.43
2023-02-11T17:05:55.397Z,3.90
2023-02-11T17:11:04.232Z,3.80
2023-02-11T17:16:17.593Z,4.10
2023-02-11T17:21:27.627Z,3.77
2023-02-11T17:26:35.844Z,4.10
2023-02-11T17:31:41.317Z,4.30
2023-02-11T17:36:48.076Z,4.70
2023-02-11T17:41:53.430Z,4.47
2023-02-11T17:47:04.792Z,5.07
2023-02-11T17:52:11.575Z,5.00
2023-02-11T17:57:17.768Z,4.70
2023-02-11T18:02:23.271Z,4.70
2023-02-11T18:07:34.410Z,5.17
2023-02-11T18:12:39.121Z,4.97
2023-02-11T18:17:44.274Z,4.30
2023-02-11T18:22:50.611Z,4.23
2023-02-11T18:27:55.167Z,4.33
2023-02-11T18:33:00.482Z,4.73
2023-02-11T18:38:06.508Z,5.20
2023-02-11T18:43:17.385Z,5.20
2023-02-11T18:48:22.120Z,5.00
2023-02-11T18:53:27.794Z,5.07
2023-02-11T18:58:33.886Z,4.60
2023-02-11T19:03:40.773Z,4.90
2023-02-11T19:08:48.055Z,4.50
2023-02-11T19:13:53.865Z,3.93
2023-02-11T19:18:59.361Z,4.20
2023-02-11T19:24:09.301Z,4.77
2023-02-11T19:29:15.079Z,3.83
2023-02-11T19:34:23.103Z,4.47
2023-02-11T19:39:30.164Z,5.27
2023-02-11T19:44:35.352Z,5.03
2023-02-11T19:49:40.815Z,5.13
2023-02-11T19:54:47.287Z,5.67
2023-02-11T19:59:58.195Z,5.07
2023-02-11T20:05:04.605Z,4.93
2023-02-11T20:10:12.976Z,4.83
2023-02-11T20:15:18.111Z,4.90
2023-02-11T20:20:22.742Z,5.13
2023-02-11T20:25:30.409Z,5.97
2023-02-11T20:30:34.467Z,5.60
2023-02-11T20:35:51.240Z,5.43
2023-02-11T20:40:58.467Z,5.17
2023-02-11T20:46:12.571Z,5.73
2023-02-11T20:51:21.677Z,4.90
2023-02-11T20:56:30.120Z,4.50
2023-02-11T21:01:36.637Z,4.70
2023-02-11T21:06:45.816Z,4.60
2023-02-11T21:11:53.837Z,5.00
2023-02-11T21:16:59.141Z,4.40
2023-02-11T21:22:03.886Z,5.27
2023-02-11T21:27:09.878Z,4.73
2023-02-11T21:32:18.203Z,4.90
2023-02-11T21:37:24.220Z,5.67
2023-02-11T21:42:33.605Z,4.20
2023-02-11T21:47:38.783Z,5.20
2023-02-11T21:52:43.739Z,4.80
2023-02-11T21:57:50.390Z,4.47
2023-02-11T22:02:54.331Z,4.30
2023-02-11T22:07:58.988Z,5.27
2023-02-11T22:13:04.799Z,5.20
2023-02-11T22:18:08.509Z,4.17
2023-02-11T22:23:12.007Z,5.07
2023-02-11T22:28:16.872Z,5.43
2023-02-11T22:33:20.194Z,5.30
2023-02-11T22:38:23.579Z,5.20
2023-02-11T22:43:28.936Z,5.37
2023-02-11T22:48:33.172Z,4.63
2023-02-11T22:53:36.766Z,5.40
2023-02-11T22:58:41.604Z,5.07
2023-02-11T23:03:45.258Z,5.80
2023-02-11T23:08:48.809Z,5.70
2023-02-11T23:13:54.474Z,5.80
2023-02-11T23:19:01.399Z,5.87
2023-02-11T23:24:07.623Z,5.67
2023-02-11T23:29:16.366Z,4.83
2023-02-11T23:34:25.333Z,4.80
2023-02-11T23:39:29.101Z,5.40
2023-02-11T23:44:34.007Z,5.80
2023-02-11T23:49:37.350Z,5.83
2023-02-11T23:54:40.946Z,5.27
2023-02-11T23:59:45.897Z,5.73
